sensor_id;sensor_type;location;lat;lon;timestamp;pressure;altitude;pressure_sealevel;temperature;humidity
40920;BME280;26652;50.280;19.026;2023-04-29T00:00:12;98077.34;;;12.05;48.30
40920;BME280;26652;50.280;19.026;2023-04-29T00:02:43;98103.84;;;12.04;48.62
40920;BME280;26652;50.280;19.026;2023-04-29T00:04:56;98089.31;;;11.98;48.79
40920;BME280;26652;50.280;19.026;2023-04-29T00:07:12;98088.31;;;11.99;48.80
40920;BME280;26652;50.280;19.026;2023-04-29T00:09:21;98086.34;;;11.94;48.90
40920;BME280;26652;50.280;19.026;2023-04-29T00:11:33;98090.28;;;11.90;49.25
40920;BME280;26652;50.280;19.026;2023-04-29T00:13:45;98088.87;;;11.81;49.09
40920;BME280;26652;50.280;19.026;2023-04-29T00:15:59;98092.41;;;11.80;49.40
40920;BME280;26652;50.280;19.026;2023-04-29T00:18:08;98084.34;;;11.76;49.50
40920;BME280;26652;50.280;19.026;2023-04-29T00:20:23;98089.28;;;11.78;50.02
40920;BME280;26652;50.280;19.026;2023-04-29T00:22:37;98093.34;;;11.72;50.07
40920;BME280;26652;50.280;19.026;2023-04-29T00:24:55;98084.31;;;11.70;50.02
40920;BME280;26652;50.280;19.026;2023-04-29T00:27:10;98082.72;;;11.56;50.59
40920;BME280;26652;50.280;19.026;2023-04-29T00:29:22;98074.84;;;11.51;50.60
40920;BME280;26652;50.280;19.026;2023-04-29T00:31:31;98080.37;;;11.61;50.69
40920;BME280;26652;50.280;19.026;2023-04-29T00:33:45;98065.84;;;11.48;50.94
40920;BME280;26652;50.280;19.026;2023-04-29T00:36:03;98063.50;;;11.40;51.49
40920;BME280;26652;50.280;19.026;2023-04-29T00:38:15;98067.78;;;11.46;51.42
40920;BME280;26652;50.280;19.026;2023-04-29T00:40:33;98065.44;;;11.51;51.62
40920;BME280;26652;50.280;19.026;2023-04-29T00:42:45;98067.22;;;11.51;51.79
40920;BME280;26652;50.280;19.026;2023-04-29T00:45:02;98065.63;;;11.50;51.70
40920;BME280;26652;50.280;19.026;2023-04-29T00:47:13;98063.50;;;11.53;51.65
40920;BME280;26652;50.280;19.026;2023-04-29T00:49:21;98064.87;;;11.62;51.76
40920;BME280;26652;50.280;19.026;2023-04-29T00:51:40;98064.69;;;11.57;51.63
40920;BME280;26652;50.280;19.026;2023-04-29T00:53:47;98057.81;;;11.58;52.51
40920;BME280;26652;50.280;19.026;2023-04-29T00:56:11;98060.78;;;11.68;51.85
40920;BME280;26652;50.280;19.026;2023-04-29T00:58:18;98057.44;;;11.67;51.94
40920;BME280;26652;50.280;19.026;2023-04-29T01:00:38;98060.59;;;11.76;51.86
40920;BME280;26652;50.280;19.026;2023-04-29T01:02:48;98065.56;;;11.91;51.78
40920;BME280;26652;50.280;19.026;2023-04-29T01:04:59;98064.78;;;11.97;52.01
40920;BME280;26652;50.280;19.026;2023-04-29T01:07:26;98064.78;;;12.03;51.59
40920;BME280;26652;50.280;19.026;2023-04-29T01:10:03;98064.19;;;11.95;51.37
40920;BME280;26652;50.280;19.026;2023-04-29T01:12:23;98066.91;;;11.80;51.55
40920;BME280;26652;50.280;19.026;2023-04-29T01:14:36;98071.00;;;11.74;51.57
40920;BME280;26652;50.280;19.026;2023-04-29T01:16:54;98071.78;;;11.68;51.72
40920;BME280;26652;50.280;19.026;2023-04-29T01:21:46;98070.00;;;11.62;52.07
40920;BME280;26652;50.280;19.026;2023-04-29T01:24:09;98075.31;;;11.74;52.08
40920;BME280;26652;50.280;19.026;2023-04-29T01:26:17;98066.69;;;11.75;52.62
40920;BME280;26652;50.280;19.026;2023-04-29T01:28:58;98075.34;;;11.81;52.06
40920;BME280;26652;50.280;19.026;2023-04-29T01:31:18;98070.63;;;11.77;52.17
40920;BME280;26652;50.280;19.026;2023-04-29T01:33:44;98073.13;;;11.64;53.03
40920;BME280;26652;50.280;19.026;2023-04-29T01:38:48;98076.53;;;11.78;52.61
40920;BME280;26652;50.280;19.026;2023-04-29T01:43:27;98060.38;;;11.58;53.09
40920;BME280;26652;50.280;19.026;2023-04-29T01:45:35;98059.16;;;11.34;53.44
40920;BME280;26652;50.280;19.026;2023-04-29T01:47:47;98059.97;;;11.41;53.70
40920;BME280;26652;50.280;19.026;2023-04-29T01:49:54;98058.97;;;11.42;53.85
40920;BME280;26652;50.280;19.026;2023-04-29T01:52:10;98059.16;;;11.47;53.91
40920;BME280;26652;50.280;19.026;2023-04-29T01:54:20;98059.38;;;11.52;53.50
40920;BME280;26652;50.280;19.026;2023-04-29T01:56:39;98047.00;;;11.29;53.93
40920;BME280;26652;50.280;19.026;2023-04-29T01:58:44;98051.28;;;11.29;54.19
40920;BME280;26652;50.280;19.026;2023-04-29T02:01:02;98048.59;;;11.43;54.13
40920;BME280;26652;50.280;19.026;2023-04-29T02:03:17;98048.78;;;11.48;54.43
40920;BME280;26652;50.280;19.026;2023-04-29T02:05:35;98048.00;;;11.41;54.06
40920;BME280;26652;50.280;19.026;2023-04-29T02:07:50;98047.00;;;11.36;54.20
40920;BME280;26652;50.280;19.026;2023-04-29T02:10:07;98048.00;;;11.41;54.20
40920;BME280;26652;50.280;19.026;2023-04-29T02:12:15;98047.22;;;11.41;54.50
40920;BME280;26652;50.280;19.026;2023-04-29T02:14:26;98039.34;;;11.29;54.34
40920;BME280;26652;50.280;19.026;2023-04-29T02:16:44;98044.47;;;11.36;54.54
40920;BME280;26652;50.280;19.026;2023-04-29T02:18:55;98038.19;;;11.45;54.49
40920;BME280;26652;50.280;19.026;2023-04-29T02:21:14;98036.25;;;11.40;54.46
40920;BME280;26652;50.280;19.026;2023-04-29T02:23:35;98042.72;;;11.50;54.98
40920;BME280;26652;50.280;19.026;2023-04-29T02:25:47;98039.75;;;11.46;55.39
40920;BME280;26652;50.280;19.026;2023-04-29T02:27:59;98040.94;;;11.50;54.89
40920;BME280;26652;50.280;19.026;2023-04-29T02:30:07;98040.53;;;11.46;55.17
40920;BME280;26652;50.280;19.026;2023-04-29T02:32:29;98039.16;;;11.44;54.54
40920;BME280;26652;50.280;19.026;2023-04-29T02:34:34;98047.22;;;11.47;54.78
40920;BME280;26652;50.280;19.026;2023-04-29T02:36:56;98031.16;;;11.40;55.00
40920;BME280;26652;50.280;19.026;2023-04-29T02:39:10;98034.28;;;11.42;55.05
40920;BME280;26652;50.280;19.026;2023-04-29T02:41:22;98031.75;;;11.42;55.56
40920;BME280;26652;50.280;19.026;2023-04-29T02:43:37;98033.87;;;11.45;54.88
40920;BME280;26652;50.280;19.026;2023-04-29T02:45:55;98031.94;;;11.54;55.69
40920;BME280;26652;50.280;19.026;2023-04-29T02:48:04;98033.13;;;11.58;55.51
40920;BME280;26652;50.280;19.026;2023-04-29T02:50:20;98034.47;;;11.47;55.52
40920;BME280;26652;50.280;19.026;2023-04-29T02:52:30;98035.66;;;11.52;55.20
40920;BME280;26652;50.280;19.026;2023-04-29T02:55:05;98041.16;;;11.62;55.21
40920;BME280;26652;50.280;19.026;2023-04-29T02:57:14;98036.06;;;11.62;55.54
40920;BME280;26652;50.280;19.026;2023-04-29T02:59:35;98028.63;;;11.67;55.56
40920;BME280;26652;50.280;19.026;2023-04-29T03:01:43;98031.75;;;11.69;55.93
40920;BME280;26652;50.280;19.026;2023-04-29T03:03:54;98030.59;;;11.65;55.51
40920;BME280;26652;50.280;19.026;2023-04-29T03:06:02;98026.84;;;11.54;56.89
40920;BME280;26652;50.280;19.026;2023-04-29T03:08:13;98019.37;;;11.39;56.55
40920;BME280;26652;50.280;19.026;2023-04-29T03:10:28;98015.22;;;11.19;57.14
40920;BME280;26652;50.280;19.026;2023-04-29T03:12:39;98010.69;;;11.14;57.30
40920;BME280;26652;50.280;19.026;2023-04-29T03:14:57;98002.41;;;10.99;57.82
40920;BME280;26652;50.280;19.026;2023-04-29T03:17:23;98001.78;;;10.90;58.44
40920;BME280;26652;50.280;19.026;2023-04-29T03:19:35;98003.09;;;10.79;58.71
40920;BME280;26652;50.280;19.026;2023-04-29T03:21:49;97997.22;;;10.79;59.59
40920;BME280;26652;50.280;19.026;2023-04-29T03:23:58;98005.31;;;10.89;59.46
40920;BME280;26652;50.280;19.026;2023-04-29T03:26:19;98004.75;;;11.00;59.08
40920;BME280;26652;50.280;19.026;2023-04-29T03:28:27;97995.75;;;10.98;59.27
40920;BME280;26652;50.280;19.026;2023-04-29T03:30:46;98003.78;;;11.01;59.40
40920;BME280;26652;50.280;19.026;2023-04-29T03:32:54;98007.53;;;11.05;59.41
40920;BME280;26652;50.280;19.026;2023-04-29T03:35:23;98013.25;;;11.21;59.16
40920;BME280;26652;50.280;19.026;2023-04-29T03:37:35;98008.56;;;11.24;59.58
40920;BME280;26652;50.280;19.026;2023-04-29T03:39:52;98013.06;;;11.22;59.61
40920;BME280;26652;50.280;19.026;2023-04-29T03:42:01;98014.44;;;11.25;59.24
40920;BME280;26652;50.280;19.026;2023-04-29T03:44:12;98013.03;;;11.16;59.87
40920;BME280;26652;50.280;19.026;2023-04-29T03:46:21;98003.84;;;11.21;59.86
40920;BME280;26652;50.280;19.026;2023-04-29T03:48:38;98006.56;;;11.13;60.36
40920;BME280;26652;50.280;19.026;2023-04-29T03:50:51;98006.16;;;11.09;60.74
40920;BME280;26652;50.280;19.026;2023-04-29T03:53:00;98002.81;;;11.02;61.22
40920;BME280;26652;50.280;19.026;2023-04-29T03:55:10;98004.16;;;10.98;61.47
40920;BME280;26652;50.280;19.026;2023-04-29T03:57:28;98001.03;;;11.03;61.90
40920;BME280;26652;50.280;19.026;2023-04-29T03:59:43;98006.75;;;11.11;62.40
40920;BME280;26652;50.280;19.026;2023-04-29T04:01:55;98012.44;;;11.07;62.13
40920;BME280;26652;50.280;19.026;2023-04-29T04:04:08;98006.94;;;11.03;61.98
40920;BME280;26652;50.280;19.026;2023-04-29T04:06:23;98007.91;;;11.02;62.51
40920;BME280;26652;50.280;19.026;2023-04-29T04:08:32;98002.63;;;11.04;62.83
40920;BME280;26652;50.280;19.026;2023-04-29T04:10:43;98007.91;;;11.02;63.16
40920;BME280;26652;50.280;19.026;2023-04-29T04:12:51;98005.53;;;11.01;63.14
40920;BME280;26652;50.280;19.026;2023-04-29T04:15:05;98007.53;;;11.05;63.29
40920;BME280;26652;50.280;19.026;2023-04-29T04:17:16;97998.31;;;11.04;63.30
40920;BME280;26652;50.280;19.026;2023-04-29T04:19:31;98005.63;;;11.21;63.10
40920;BME280;26652;50.280;19.026;2023-04-29T04:21:39;98007.78;;;11.24;62.98
40920;BME280;26652;50.280;19.026;2023-04-29T04:24:08;98004.28;;;11.31;63.04
40920;BME280;26652;50.280;19.026;2023-04-29T04:26:17;98009.78;;;11.41;62.60
40920;BME280;26652;50.280;19.026;2023-04-29T04:28:38;98002.50;;;11.45;63.14
40920;BME280;26652;50.280;19.026;2023-04-29T04:30:52;98010.16;;;11.32;63.09
40920;BME280;26652;50.280;19.026;2023-04-29T04:33:16;98015.44;;;11.30;63.21
40920;BME280;26652;50.280;19.026;2023-04-29T04:35:25;98007.41;;;11.27;63.49
40920;BME280;26652;50.280;19.026;2023-04-29T04:37:39;98010.72;;;11.27;63.52
40920;BME280;26652;50.280;19.026;2023-04-29T04:39:48;98014.25;;;11.26;63.98
40920;BME280;26652;50.280;19.026;2023-04-29T04:42:11;98006.44;;;11.34;63.73
40920;BME280;26652;50.280;19.026;2023-04-29T04:44:20;98002.09;;;11.28;63.95
40920;BME280;26652;50.280;19.026;2023-04-29T04:46:34;98002.09;;;11.28;64.30
40920;BME280;26652;50.280;19.026;2023-04-29T04:48:43;98001.91;;;11.30;64.52
40920;BME280;26652;50.280;19.026;2023-04-29T04:51:06;98004.50;;;11.43;64.59
40920;BME280;26652;50.280;19.026;2023-04-29T04:53:11;98006.81;;;11.44;64.41
40920;BME280;26652;50.280;19.026;2023-04-29T04:55:35;97999.16;;;11.44;64.47
40920;BME280;26652;50.280;19.026;2023-04-29T04:57:46;98001.34;;;11.34;64.62
40920;BME280;26652;50.280;19.026;2023-04-29T04:59:58;98009.38;;;11.31;64.95
40920;BME280;26652;50.280;19.026;2023-04-29T05:02:07;97993.28;;;11.31;65.19
40920;BME280;26652;50.280;19.026;2023-04-29T05:04:29;98006.25;;;11.49;64.82
40920;BME280;26652;50.280;19.026;2023-04-29T05:06:38;98012.91;;;11.57;65.16
40920;BME280;26652;50.280;19.026;2023-04-29T05:09:01;98010.38;;;11.63;64.59
40920;BME280;26652;50.280;19.026;2023-04-29T05:11:14;98001.75;;;11.51;64.99
40920;BME280;26652;50.280;19.026;2023-04-29T05:13:22;98008.03;;;11.42;65.45
40920;BME280;26652;50.280;19.026;2023-04-29T05:15:31;98005.66;;;11.54;65.40
40920;BME280;26652;50.280;19.026;2023-04-29T05:17:48;98006.03;;;11.51;65.43
40920;BME280;26652;50.280;19.026;2023-04-29T05:20:06;98008.59;;;11.57;65.76
40920;BME280;26652;50.280;19.026;2023-04-29T05:22:19;98014.09;;;11.54;65.71
40920;BME280;26652;50.280;19.026;2023-04-29T05:24:35;98000.75;;;11.52;65.57
40920;BME280;26652;50.280;19.026;2023-04-29T05:26:53;98012.31;;;11.55;65.90
40920;BME280;26652;50.280;19.026;2023-04-29T05:29:02;98008.81;;;11.56;65.97
40920;BME280;26652;50.280;19.026;2023-04-29T05:31:16;98011.37;;;11.69;66.23
40920;BME280;26652;50.280;19.026;2023-04-29T05:33:25;98015.34;;;11.78;66.09
40920;BME280;26652;50.280;19.026;2023-04-29T05:35:46;98001.78;;;11.77;66.11
40920;BME280;26652;50.280;19.026;2023-04-29T05:37:55;98009.06;;;11.87;66.32
40920;BME280;26652;50.280;19.026;2023-04-29T05:40:18;98016.91;;;11.86;66.84
40920;BME280;26652;50.280;19.026;2023-04-29T05:42:33;98015.34;;;11.91;66.81
40920;BME280;26652;50.280;19.026;2023-04-29T05:44:50;98012.00;;;11.97;67.39
40920;BME280;26652;50.280;19.026;2023-04-29T05:46:59;98011.81;;;11.92;67.61
40920;BME280;26652;50.280;19.026;2023-04-29T05:49:13;98017.69;;;11.99;68.05
40920;BME280;26652;50.280;19.026;2023-04-29T05:51:30;98017.09;;;12.04;67.13
40920;BME280;26652;50.280;19.026;2023-04-29T05:53:45;98018.09;;;11.90;67.47
40920;BME280;26652;50.280;19.026;2023-04-29T05:56:11;98022.19;;;11.84;68.05
40920;BME280;26652;50.280;19.026;2023-04-29T05:58:41;98029.06;;;11.97;69.20
40920;BME280;26652;50.280;19.026;2023-04-29T06:00:50;98023.38;;;11.82;68.29
40920;BME280;26652;50.280;19.026;2023-04-29T06:03:01;98019.81;;;11.76;68.76
40920;BME280;26652;50.280;19.026;2023-04-29T06:05:10;98022.41;;;11.83;68.82
40920;BME280;26652;50.280;19.026;2023-04-29T06:07:20;98013.91;;;11.56;69.46
40920;BME280;26652;50.280;19.026;2023-04-29T06:09:35;98020.59;;;11.70;69.55
40920;BME280;26652;50.280;19.026;2023-04-29T06:11:46;98025.94;;;11.88;69.48
40920;BME280;26652;50.280;19.026;2023-04-29T06:13:55;98014.16;;;12.00;69.08
40920;BME280;26652;50.280;19.026;2023-04-29T06:16:11;98008.28;;;12.00;69.17
40920;BME280;26652;50.280;19.026;2023-04-29T06:18:20;98022.41;;;12.09;68.86
40920;BME280;26652;50.280;19.026;2023-04-29T06:20:40;98021.03;;;12.13;69.47
40920;BME280;26652;50.280;19.026;2023-04-29T06:22:49;98018.28;;;12.15;69.36
40920;BME280;26652;50.280;19.026;2023-04-29T06:25:06;98016.72;;;11.94;69.98
40920;BME280;26652;50.280;19.026;2023-04-29T06:27:16;98013.19;;;11.88;70.78
40920;BME280;26652;50.280;19.026;2023-04-29T06:29:40;98005.53;;;11.82;70.97
40920;BME280;26652;50.280;19.026;2023-04-29T06:31:46;98011.75;;;11.66;72.16
40920;BME280;26652;50.280;19.026;2023-04-29T06:34:05;98014.50;;;11.71;72.58
40920;BME280;26652;50.280;19.026;2023-04-29T06:36:19;98010.22;;;11.85;72.37
40920;BME280;26652;50.280;19.026;2023-04-29T06:38:31;98011.22;;;11.84;72.87
40920;BME280;26652;50.280;19.026;2023-04-29T06:40:45;98011.03;;;12.05;72.85
40920;BME280;26652;50.280;19.026;2023-04-29T06:43:08;98012.59;;;12.13;72.07
40920;BME280;26652;50.280;19.026;2023-04-29T06:45:15;98010.25;;;11.98;72.00
40920;BME280;26652;50.280;19.026;2023-04-29T06:47:27;98009.25;;;11.99;73.30
40920;BME280;26652;50.280;19.026;2023-04-29T06:49:39;98012.41;;;12.01;73.92
40920;BME280;26652;50.280;19.026;2023-04-29T06:51:59;98015.94;;;12.20;73.79
40920;BME280;26652;50.280;19.026;2023-04-29T06:54:17;98016.69;;;12.27;75.07
40920;BME280;26652;50.280;19.026;2023-04-29T06:56:35;98020.63;;;12.16;73.68
40920;BME280;26652;50.280;19.026;2023-04-29T06:58:55;98028.09;;;12.31;73.80
40920;BME280;26652;50.280;19.026;2023-04-29T07:01:32;98026.91;;;12.27;73.70
40920;BME280;26652;50.280;19.026;2023-04-29T07:03:41;98018.47;;;12.06;74.92
40920;BME280;26652;50.280;19.026;2023-04-29T07:05:55;98011.41;;;12.02;76.00
40920;BME280;26652;50.280;19.026;2023-04-29T07:08:03;98011.81;;;12.12;76.68
40920;BME280;26652;50.280;19.026;2023-04-29T07:10:13;98009.06;;;12.07;76.30
40920;BME280;26652;50.280;19.026;2023-04-29T07:12:21;98014.16;;;12.07;76.77
40920;BME280;26652;50.280;19.026;2023-04-29T07:14:37;98010.63;;;12.01;77.09
40920;BME280;26652;50.280;19.026;2023-04-29T07:16:54;98011.81;;;11.86;78.31
40920;BME280;26652;50.280;19.026;2023-04-29T07:19:24;98003.37;;;11.85;79.26
40920;BME280;26652;50.280;19.026;2023-04-29T07:21:37;98012.00;;;12.04;80.12
40920;BME280;26652;50.280;19.026;2023-04-29T07:23:51;98009.44;;;12.17;80.69
40920;BME280;26652;50.280;19.026;2023-04-29T07:26:14;98013.19;;;12.15;79.08
40920;BME280;26652;50.280;19.026;2023-04-29T07:28:25;98014.53;;;12.30;78.94
40920;BME280;26652;50.280;19.026;2023-04-29T07:30:34;98013.75;;;12.30;79.05
40920;BME280;26652;50.280;19.026;2023-04-29T07:32:47;98010.22;;;12.31;78.81
40920;BME280;26652;50.280;19.026;2023-04-29T07:34:52;98012.41;;;12.07;79.36
40920;BME280;26652;50.280;19.026;2023-04-29T07:37:10;98022.59;;;12.21;79.38
40920;BME280;26652;50.280;19.026;2023-04-29T07:39:23;98018.25;;;12.34;79.03
40920;BME280;26652;50.280;19.026;2023-04-29T07:41:36;98019.00;;;12.55;79.44
40920;BME280;26652;50.280;19.026;2023-04-29T07:43:44;98020.37;;;12.51;78.02
40920;BME280;26652;50.280;19.026;2023-04-29T07:46:13;98017.28;;;12.42;78.31
40920;BME280;26652;50.280;19.026;2023-04-29T07:48:39;98029.59;;;12.58;78.90
40920;BME280;26652;50.280;19.026;2023-04-29T07:51:02;98028.28;;;12.42;79.37
40920;BME280;26652;50.280;19.026;2023-04-29T07:53:17;98016.84;;;12.52;79.78
40920;BME280;26652;50.280;19.026;2023-04-29T07:55:52;98021.94;;;12.52;79.94
40920;BME280;26652;50.280;19.026;2023-04-29T07:58:00;98025.84;;;12.61;79.93
40920;BME280;26652;50.280;19.026;2023-04-29T08:00:41;98022.72;;;12.59;79.93
40920;BME280;26652;50.280;19.026;2023-04-29T08:02:58;98024.53;;;12.38;80.71
40920;BME280;26652;50.280;19.026;2023-04-29T08:05:17;98024.34;;;12.27;81.97
40920;BME280;26652;50.280;19.026;2023-04-29T08:07:23;98022.78;;;12.26;81.50
40920;BME280;26652;50.280;19.026;2023-04-29T08:09:48;98024.34;;;12.27;81.82
40920;BME280;26652;50.280;19.026;2023-04-29T08:11:58;98023.31;;;12.54;81.09
40920;BME280;26652;50.280;19.026;2023-04-29T08:14:12;98021.88;;;12.71;80.47
40920;BME280;26652;50.280;19.026;2023-04-29T08:16:22;98022.28;;;12.75;80.05
40920;BME280;26652;50.280;19.026;2023-04-29T08:18:40;98018.81;;;13.07;79.67
40920;BME280;26652;50.280;19.026;2023-04-29T08:20:48;98021.78;;;13.49;76.79
40920;BME280;26652;50.280;19.026;2023-04-29T08:23:00;98017.69;;;13.73;76.01
40920;BME280;26652;50.280;19.026;2023-04-29T08:25:08;98014.44;;;14.09;74.72
40920;BME280;26652;50.280;19.026;2023-04-29T08:27:24;98015.84;;;14.05;73.51
40920;BME280;26652;50.280;19.026;2023-04-29T08:29:57;98004.16;;;13.91;74.40
40920;BME280;26652;50.280;19.026;2023-04-29T08:32:06;98010.34;;;14.26;74.83
40920;BME280;26652;50.280;19.026;2023-04-29T08:34:19;98011.25;;;14.57;72.77
40920;BME280;26652;50.280;19.026;2023-04-29T08:36:37;98016.28;;;15.00;71.34
40920;BME280;26652;50.280;19.026;2023-04-29T08:38:46;98023.12;;;15.36;70.82
40920;BME280;26652;50.280;19.026;2023-04-29T08:40:59;98021.81;;;15.45;69.00
40920;BME280;26652;50.280;19.026;2023-04-29T08:43:11;98013.25;;;15.51;67.54
40920;BME280;26652;50.280;19.026;2023-04-29T08:45:26;98021.44;;;15.60;66.05
40920;BME280;26652;50.280;19.026;2023-04-29T08:47:37;98031.22;;;15.51;66.04
40920;BME280;26652;50.280;19.026;2023-04-29T08:49:55;98025.81;;;15.59;65.48
40920;BME280;26652;50.280;19.026;2023-04-29T08:52:01;98018.87;;;15.60;65.56
40920;BME280;26652;50.280;19.026;2023-04-29T08:54:12;98030.56;;;16.21;66.07
40920;BME280;26652;50.280;19.026;2023-04-29T08:56:27;98019.25;;;15.87;63.58
40920;BME280;26652;50.280;19.026;2023-04-29T08:58:44;98021.59;;;16.00;64.12
40920;BME280;26652;50.280;19.026;2023-04-29T09:01:01;98017.81;;;15.91;64.07
40920;BME280;26652;50.280;19.026;2023-04-29T09:05:35;98022.28;;;16.07;62.00
40920;BME280;26652;50.280;19.026;2023-04-29T09:07:51;98017.44;;;16.69;61.26
40920;BME280;26652;50.280;19.026;2023-04-29T09:09:58;98020.00;;;16.81;60.57
40920;BME280;26652;50.280;19.026;2023-04-29T09:12:08;98007.78;;;16.88;59.07
40920;BME280;26652;50.280;19.026;2023-04-29T09:14:19;98014.00;;;17.04;58.03
40920;BME280;26652;50.280;19.026;2023-04-29T09:16:29;98022.72;;;17.03;58.49
40920;BME280;26652;50.280;19.026;2023-04-29T09:18:49;98022.62;;;16.97;58.56
40920;BME280;26652;50.280;19.026;2023-04-29T09:21:26;98024.22;;;16.87;58.01
40920;BME280;26652;50.280;19.026;2023-04-29T09:23:37;98021.78;;;16.80;57.06
40920;BME280;26652;50.280;19.026;2023-04-29T09:25:57;98019.72;;;17.06;57.03
40920;BME280;26652;50.280;19.026;2023-04-29T09:28:17;98014.97;;;17.43;57.17
40920;BME280;26652;50.280;19.026;2023-04-29T09:30:33;98010.47;;;17.21;56.66
40920;BME280;26652;50.280;19.026;2023-04-29T09:33:09;98020.53;;;17.51;57.93
40920;BME280;26652;50.280;19.026;2023-04-29T09:35:26;98022.19;;;18.08;55.65
40920;BME280;26652;50.280;19.026;2023-04-29T09:37:36;98017.44;;;17.83;56.76
40920;BME280;26652;50.280;19.026;2023-04-29T09:39:48;98012.97;;;17.78;56.60
40920;BME280;26652;50.280;19.026;2023-04-29T09:42:00;98019.28;;;17.54;57.66
40920;BME280;26652;50.280;19.026;2023-04-29T09:44:25;98015.38;;;17.51;58.46
40920;BME280;26652;50.280;19.026;2023-04-29T09:46:32;98014.56;;;17.34;57.85
40920;BME280;26652;50.280;19.026;2023-04-29T09:48:48;98015.00;;;17.03;58.55
40920;BME280;26652;50.280;19.026;2023-04-29T09:51:01;98020.16;;;17.03;58.56
40920;BME280;26652;50.280;19.026;2023-04-29T09:53:28;98005.75;;;17.30;60.24
40920;BME280;26652;50.280;19.026;2023-04-29T09:55:57;98012.22;;;17.32;58.95
40920;BME280;26652;50.280;19.026;2023-04-29T09:58:28;98016.41;;;17.22;59.04
40920;BME280;26652;50.280;19.026;2023-04-29T10:00:37;98017.09;;;16.77;59.93
40920;BME280;26652;50.280;19.026;2023-04-29T10:02:54;98017.38;;;16.52;60.51
40920;BME280;26652;50.280;19.026;2023-04-29T10:05:04;98016.78;;;16.62;60.62
40920;BME280;26652;50.280;19.026;2023-04-29T10:07:20;98013.25;;;16.40;61.97
40920;BME280;26652;50.280;19.026;2023-04-29T10:09:26;98011.44;;;16.05;62.18
40920;BME280;26652;50.280;19.026;2023-04-29T10:11:36;98013.00;;;15.94;62.44
40920;BME280;26652;50.280;19.026;2023-04-29T10:13:45;98018.22;;;15.76;62.08
40920;BME280;26652;50.280;19.026;2023-04-29T10:16:27;98015.00;;;15.81;62.95
40920;BME280;26652;50.280;19.026;2023-04-29T10:18:36;98013.22;;;15.81;62.66
40920;BME280;26652;50.280;19.026;2023-04-29T10:20:51;98011.78;;;15.85;62.52
40920;BME280;26652;50.280;19.026;2023-04-29T10:22:57;98009.97;;;15.86;63.40
40920;BME280;26652;50.280;19.026;2023-04-29T10:25:15;98009.97;;;15.86;62.33
40920;BME280;26652;50.280;19.026;2023-04-29T10:27:22;98008.41;;;15.85;62.83
40920;BME280;26652;50.280;19.026;2023-04-29T10:29:35;98008.75;;;15.77;62.88
40920;BME280;26652;50.280;19.026;2023-04-29T10:31:43;98004.50;;;15.82;63.14
40920;BME280;26652;50.280;19.026;2023-04-29T10:33:57;98008.41;;;15.85;62.91
40920;BME280;26652;50.280;19.026;2023-04-29T10:36:03;98007.19;;;15.87;62.41
40920;BME280;26652;50.280;19.026;2023-04-29T10:38:23;97998.22;;;15.66;63.86
40920;BME280;26652;50.280;19.026;2023-04-29T10:40:44;98000.69;;;15.73;63.27
40920;BME280;26652;50.280;19.026;2023-04-29T10:42:56;97998.69;;;15.75;63.09
40920;BME280;26652;50.280;19.026;2023-04-29T10:45:24;98006.84;;;15.84;63.59
40920;BME280;26652;50.280;19.026;2023-04-29T10:47:35;98008.53;;;15.78;63.18
40920;BME280;26652;50.280;19.026;2023-04-29T10:50:03;98003.72;;;15.58;63.81
40920;BME280;26652;50.280;19.026;2023-04-29T10:52:16;98001.81;;;15.65;64.51
40920;BME280;26652;50.280;19.026;2023-04-29T10:54:28;98011.91;;;15.49;64.03
40920;BME280;26652;50.280;19.026;2023-04-29T10:56:51;98008.97;;;15.33;64.10
40920;BME280;26652;50.280;19.026;2023-04-29T10:58:58;98008.78;;;15.47;63.90
40920;BME280;26652;50.280;19.026;2023-04-29T11:01:25;98003.53;;;15.42;64.83
40920;BME280;26652;50.280;19.026;2023-04-29T11:03:54;98011.31;;;15.35;64.42
40920;BME280;26652;50.280;19.026;2023-04-29T11:06:13;98010.91;;;15.50;64.40
40920;BME280;26652;50.280;19.026;2023-04-29T11:08:22;98011.78;;;15.44;63.77
40920;BME280;26652;50.280;19.026;2023-04-29T11:10:41;98008.31;;;15.38;64.12
40920;BME280;26652;50.280;19.026;2023-04-29T11:12:47;98008.00;;;15.46;65.00
40920;BME280;26652;50.280;19.026;2023-04-29T11:14:59;98001.03;;;15.65;64.49
40920;BME280;26652;50.280;19.026;2023-04-29T11:17:14;98004.37;;;15.65;63.70
40920;BME280;26652;50.280;19.026;2023-04-29T11:19:29;97992.97;;;15.61;63.49
40920;BME280;26652;50.280;19.026;2023-04-29T11:21:36;97991.31;;;15.67;64.02
40920;BME280;26652;50.280;19.026;2023-04-29T11:23:51;97993.78;;;15.74;64.54
40920;BME280;26652;50.280;19.026;2023-04-29T11:26:02;97996.00;;;15.70;63.85
40920;BME280;26652;50.280;19.026;2023-04-29T11:28:13;97998.34;;;15.72;63.55
40920;BME280;26652;50.280;19.026;2023-04-29T11:30:22;97999.47;;;15.64;64.72
40920;BME280;26652;50.280;19.026;2023-04-29T11:32:39;98003.81;;;15.63;64.95
40920;BME280;26652;50.280;19.026;2023-04-29T11:34:47;98001.00;;;15.53;64.68
40920;BME280;26652;50.280;19.026;2023-04-29T11:37:23;97997.88;;;15.51;64.94
40920;BME280;26652;50.280;19.026;2023-04-29T11:39:33;97996.19;;;15.45;64.48
40920;BME280;26652;50.280;19.026;2023-04-29T11:42:06;97999.44;;;15.52;64.27
40920;BME280;26652;50.280;19.026;2023-04-29T11:44:35;98003.72;;;15.58;64.48
40920;BME280;26652;50.280;19.026;2023-04-29T11:46:45;97999.38;;;15.59;65.09
40920;BME280;26652;50.280;19.026;2023-04-29T11:49:03;97999.47;;;15.64;65.31
40920;BME280;26652;50.280;19.026;2023-04-29T11:51:16;98004.25;;;15.60;66.99
40920;BME280;26652;50.280;19.026;2023-04-29T11:53:28;97997.00;;;15.57;66.96
40920;BME280;26652;50.280;19.026;2023-04-29T11:55:36;97996.22;;;15.57;67.40